createdAt,value
2018-06-17T00:01:09.253Z,5.20
2018-06-17T00:03:37.659Z,5.50
2018-06-17T00:06:06.091Z,6.07
2018-06-17T00:08:34.593Z,6.00
2018-06-17T00:11:03.048Z,5.90
2018-06-17T00:13:31.553Z,5.60
2018-06-17T00:15:59.972Z,6.00
2018-06-17T00:18:28.390Z,5.80
2018-06-17T00:20:56.932Z,4.97
2018-06-17T00:23:25.366Z,6.37
2018-06-17T00:25:53.750Z,5.80
2018-06-17T00:28:22.197Z,5.27
2018-06-17T00:30:50.592Z,4.90
2018-06-17T00:33:18.991Z,5.37
2018-06-17T00:35:47.538Z,5.43
2018-06-17T00:38:15.937Z,6.10
2018-06-17T00:40:44.408Z,5.07
2018-06-17T00:43:12.883Z,5.50
2018-06-17T00:45:41.261Z,4.80
2018-06-17T00:48:09.775Z,5.10
2018-06-17T00:50:38.195Z,5.87
2018-06-17T00:53:06.581Z,5.23
2018-06-17T00:55:35.351Z,5.13
2018-06-17T00:58:03.801Z,5.63
2018-06-17T01:00:32.247Z,5.10
2018-06-17T01:03:00.676Z,4.97
2018-06-17T01:05:29.096Z,5.53
2018-06-17T01:07:57.520Z,5.40
2018-06-17T01:10:25.927Z,5.27
2018-06-17T01:12:55.043Z,4.57
2018-06-17T01:15:23.444Z,5.80
2018-06-17T01:17:51.940Z,5.50
2018-06-17T01:20:20.332Z,5.20
2018-06-17T01:22:48.727Z,5.07
2018-06-17T01:25:17.228Z,6.23
2018-06-17T01:27:45.746Z,4.80
2018-06-17T01:30:14.120Z,5.23
2018-06-17T01:32:42.551Z,5.10
2018-06-17T01:35:10.642Z,4.47
2018-06-17T01:37:39.037Z,5.80
2018-06-17T01:40:07.514Z,4.53
2018-06-17T01:42:35.932Z,4.87
2018-06-17T01:45:04.431Z,5.80
2018-06-17T01:47:32.852Z,5.73
2018-06-17T01:50:01.271Z,5.07
2018-06-17T01:52:29.664Z,5.40
2018-06-17T01:54:58.149Z,5.60
2018-06-17T01:57:26.653Z,5.23
2018-06-17T01:59:55.085Z,5.93
2018-06-17T02:02:23.499Z,4.80
2018-06-17T02:04:57.323Z,6.40
2018-06-17T02:07:31.142Z,5.40
2018-06-17T02:10:05.459Z,6.40
2018-06-17T02:12:33.842Z,5.80
2018-06-17T02:15:02.420Z,5.27
2018-06-17T02:17:30.796Z,5.67
2018-06-17T02:19:59.268Z,6.30
2018-06-17T02:22:27.646Z,4.80
2018-06-17T02:24:56.066Z,7.00
2018-06-17T02:27:24.457Z,5.50
2018-06-17T02:29:52.730Z,6.20
2018-06-17T02:32:21.132Z,6.50
2018-06-17T02:34:49.570Z,6.07
2018-06-17T02:37:18.016Z,6.00
2018-06-17T02:39:46.465Z,7.47
2018-06-17T02:42:14.962Z,6.93
2018-06-17T02:44:43.353Z,7.23
2018-06-17T02:47:17.666Z,6.10
2018-06-17T02:49:48.313Z,6.93
2018-06-17T02:52:22.226Z,5.60
2018-06-17T02:54:50.649Z,6.33
2018-06-17T02:57:20.003Z,6.47
2018-06-17T02:59:48.588Z,7.03
2018-06-17T03:02:17.173Z,6.67
2018-06-17T03:04:45.282Z,5.83
2018-06-17T03:07:13.673Z,6.50
2018-06-17T03:09:42.190Z,6.77
2018-06-17T03:12:10.616Z,6.10
2018-06-17T03:14:39.185Z,6.63
2018-06-17T03:17:07.588Z,6.03
2018-06-17T03:19:35.688Z,5.80
2018-06-17T03:22:04.227Z,6.10
2018-06-17T03:24:38.071Z,6.20
2018-06-17T03:27:11.944Z,5.90
2018-06-17T03:29:45.632Z,6.27
2018-06-17T03:32:19.332Z,5.93
2018-06-17T03:34:52.498Z,6.00
2018-06-17T03:37:21.008Z,6.30
2018-06-17T03:39:49.436Z,6.47
2018-06-17T03:42:17.922Z,5.70
2018-06-17T03:44:46.305Z,5.63
2018-06-17T03:47:14.726Z,5.43
2018-06-17T03:49:43.125Z,5.77
2018-06-17T03:52:11.586Z,6.60
2018-06-17T03:54:40.023Z,6.57
2018-06-17T03:57:08.484Z,6.20
2018-06-17T03:59:37.026Z,6.20
2018-06-17T04:02:05.464Z,5.90
2018-06-17T04:04:39.296Z,5.97
2018-06-17T04:07:07.734Z,6.20
2018-06-17T04:09:36.247Z,5.50
2018-06-17T04:12:04.649Z,5.70
2018-06-17T04:14:33.157Z,6.63
2018-06-17T04:17:05.793Z,6.20
2018-06-17T04:19:34.177Z,5.37
2018-06-17T04:22:02.656Z,5.23
2018-06-17T04:24:31.058Z,6.40
2018-06-17T04:26:59.477Z,5.47
2018-06-17T04:29:27.939Z,6.57
2018-06-17T04:31:56.360Z,5.33
2018-06-17T04:34:24.908Z,6.47
2018-06-17T04:36:53.296Z,7.70
2018-06-17T04:39:21.708Z,8.57
2018-06-17T04:41:50.705Z,7.93
2018-06-17T04:44:19.238Z,9.93
2018-06-17T04:46:48.036Z,9.50
2018-06-17T04:49:16.614Z,10.00
2018-06-17T04:51:45.044Z,10.13
2018-06-17T04:54:13.527Z,10.37
2018-06-17T04:56:41.932Z,10.03
2018-06-17T04:59:10.466Z,11.00
2018-06-17T05:01:39.501Z,9.87
2018-06-17T05:04:07.902Z,10.93
2018-06-17T05:06:36.321Z,9.57
2018-06-17T05:09:07.418Z,9.23
2018-06-17T05:11:35.824Z,9.73
2018-06-17T05:14:04.261Z,8.80
2018-06-17T05:16:33.037Z,9.50
2018-06-17T05:19:01.482Z,8.90
2018-06-17T05:21:30.457Z,9.80
2018-06-17T05:23:58.917Z,8.80
2018-06-17T05:26:27.799Z,9.43
2018-06-17T05:28:56.351Z,8.40
2018-06-17T05:31:24.877Z,9.23
2018-06-17T05:33:53.060Z,10.93
2018-06-17T05:36:21.485Z,10.00
2018-06-17T05:38:49.931Z,10.67
2018-06-17T05:41:18.376Z,10.23
2018-06-17T05:43:47.499Z,9.50
2018-06-17T05:46:15.956Z,9.23
2018-06-17T05:48:44.339Z,9.70
2018-06-17T05:51:12.737Z,9.47
2018-06-17T05:53:41.172Z,8.73
2018-06-17T05:56:09.575Z,8.70
2018-06-17T05:58:38.060Z,10.03
2018-06-17T06:01:06.505Z,9.93
2018-06-17T06:03:34.920Z,8.17
2018-06-17T06:06:03.475Z,8.07
2018-06-17T06:08:31.937Z,7.33
2018-06-17T06:11:00.428Z,7.87
2018-06-17T06:13:29.022Z,6.77
2018-06-17T06:15:57.514Z,7.00
2018-06-17T06:18:26.229Z,5.97
2018-06-17T06:20:54.724Z,6.77
2018-06-17T06:23:23.393Z,7.83
2018-06-17T06:25:51.738Z,6.90
2018-06-17T06:28:20.161Z,7.17
2018-06-17T06:30:48.551Z,6.80
2018-06-17T06:33:16.973Z,6.37
2018-06-17T06:35:45.511Z,7.20
2018-06-17T06:38:13.934Z,6.80
2018-06-17T06:40:42.426Z,7.00
2018-06-17T06:43:11.194Z,7.30
2018-06-17T06:45:39.729Z,7.50
2018-06-17T06:48:08.140Z,8.20
2018-06-17T06:50:36.689Z,8.83
2018-06-17T06:53:05.332Z,8.80
2018-06-17T06:55:34.626Z,8.20
2018-06-17T06:58:03.092Z,7.60
2018-06-17T07:00:31.538Z,7.67
2018-06-17T07:03:11.344Z,6.90
2018-06-17T07:05:50.885Z,7.43
2018-06-17T07:08:30.457Z,7.57
2018-06-17T07:10:58.978Z,8.30
2018-06-17T07:13:27.457Z,7.63
2018-06-17T07:16:07.133Z,8.20
2018-06-17T07:18:37.884Z,8.27
2018-06-17T07:21:06.728Z,6.87
2018-06-17T07:23:35.254Z,6.90
2018-06-17T07:26:47.809Z,6.90
2018-06-17T07:29:28.810Z,7.73
2018-06-17T07:31:57.389Z,8.00
2018-06-17T07:34:26.117Z,8.23
2018-06-17T07:36:54.539Z,7.33
2018-06-17T07:41:36.414Z,6.00
2018-06-17T07:44:04.847Z,6.17
2018-06-17T07:46:33.349Z,6.47
2018-06-17T07:49:41.853Z,6.20
2018-06-17T07:52:22.135Z,5.63
2018-06-17T07:54:50.705Z,5.73
2018-06-17T07:57:20.453Z,5.70
2018-06-17T07:59:49.108Z,6.97
2018-06-17T08:02:17.408Z,5.30
2018-06-17T08:04:45.948Z,5.70
2018-06-17T08:07:14.344Z,4.70
2018-06-17T08:09:42.880Z,4.73
2018-06-17T08:12:12.150Z,4.73
2018-06-17T08:14:41.086Z,4.27
2018-06-17T08:17:09.532Z,4.67
2018-06-17T08:19:38.113Z,4.97
2018-06-17T08:22:06.554Z,4.90
2018-06-17T08:24:35.509Z,5.20
2018-06-17T08:27:04.129Z,4.37
2018-06-17T08:29:32.713Z,4.87
2018-06-17T08:32:01.238Z,5.23
2018-06-17T08:34:29.691Z,5.20
2018-06-17T08:36:58.960Z,5.13
2018-06-17T08:39:27.081Z,5.87
2018-06-17T08:41:55.601Z,4.80
2018-06-17T08:44:24.141Z,4.80
2018-06-17T08:46:52.795Z,5.20
2018-06-17T08:49:21.685Z,4.30
2018-06-17T08:51:50.114Z,4.70
2018-06-17T08:54:18.621Z,4.87
2018-06-17T08:56:47.163Z,5.50
2018-06-17T08:59:15.689Z,4.47
2018-06-17T09:01:44.317Z,5.17
2018-06-17T09:04:12.776Z,4.80
2018-06-17T09:06:41.382Z,5.40
2018-06-17T09:09:11.542Z,4.33
2018-06-17T09:11:39.963Z,4.47
2018-06-17T09:14:08.478Z,4.83
2018-06-17T09:16:37.636Z,10.63
2018-06-17T09:19:06.130Z,5.67
2018-06-17T09:21:34.632Z,4.57
2018-06-17T09:24:03.101Z,4.40
2018-06-17T09:26:31.687Z,4.40
2018-06-17T09:29:00.208Z,5.23
2018-06-17T09:31:28.779Z,4.50
2018-06-17T09:33:57.279Z,5.10
2018-06-17T09:36:26.765Z,4.30
2018-06-17T09:38:55.168Z,3.90
2018-06-17T09:41:23.592Z,4.40
2018-06-17T09:43:52.183Z,4.23
2018-06-17T09:46:20.647Z,4.30
2018-06-17T09:48:48.783Z,4.77
2018-06-17T09:51:17.409Z,4.57
2018-06-17T09:53:45.894Z,4.87
2018-06-17T09:56:14.371Z,4.70
2018-06-17T09:58:42.813Z,4.53
2018-06-17T10:01:11.347Z,4.77
2018-06-17T10:03:39.831Z,5.33
2018-06-17T10:06:08.686Z,4.47
2018-06-17T10:08:37.265Z,4.80
2018-06-17T10:11:07.463Z,5.30
2018-06-17T10:13:50.768Z,5.23
2018-06-17T10:16:19.252Z,4.83
2018-06-17T10:18:47.717Z,4.30
2018-06-17T10:21:16.176Z,4.50
2018-06-17T10:23:44.702Z,4.27
2018-06-17T10:26:13.130Z,4.50
2018-06-17T10:28:41.636Z,4.23
2018-06-17T10:31:10.155Z,4.30
2018-06-17T10:33:38.757Z,4.43
2018-06-17T10:36:06.874Z,4.23
2018-06-17T10:38:35.430Z,3.97
2018-06-17T10:41:03.555Z,4.63
2018-06-17T10:43:32.805Z,4.47
2018-06-17T10:46:01.271Z,4.10
2018-06-17T10:48:29.718Z,4.60
2018-06-17T10:50:58.343Z,4.37
2018-06-17T10:53:26.780Z,4.30
2018-06-17T10:55:55.317Z,4.20
2018-06-17T10:58:23.684Z,3.50
2018-06-17T11:00:52.120Z,3.73
2018-06-17T11:03:20.580Z,3.87
2018-06-17T11:05:49.108Z,3.90
2018-06-17T11:08:17.610Z,4.83
2018-06-17T11:10:46.061Z,3.70
2018-06-17T11:13:14.629Z,4.70
2018-06-17T11:15:43.084Z,4.00
2018-06-17T11:18:11.559Z,4.50
2018-06-17T11:20:39.977Z,4.07
2018-06-17T11:23:09.336Z,3.90
2018-06-17T11:25:37.766Z,3.97
2018-06-17T11:28:06.432Z,4.80
2018-06-17T11:30:35.132Z,4.43
2018-06-17T11:33:03.582Z,4.30
2018-06-17T11:35:32.108Z,4.20
2018-06-17T11:38:00.542Z,4.10
2018-06-17T11:40:28.966Z,4.27
2018-06-17T11:42:57.557Z,3.37
2018-06-17T11:45:25.978Z,3.77
2018-06-17T11:47:54.115Z,4.40
2018-06-17T11:50:23.650Z,3.63
2018-06-17T11:52:52.245Z,3.40
2018-06-17T11:55:20.718Z,3.30
2018-06-17T11:57:49.176Z,4.30
2018-06-17T12:00:17.679Z,3.80
2018-06-17T12:02:46.103Z,4.00
2018-06-17T12:05:14.701Z,3.93
2018-06-17T12:07:43.225Z,4.17
2018-06-17T12:10:11.647Z,4.87
2018-06-17T12:12:39.844Z,4.50
2018-06-17T12:15:08.286Z,4.67
2018-06-17T12:17:36.798Z,4.97
2018-06-17T12:20:04.918Z,4.67
2018-06-17T12:22:33.467Z,4.50
2018-06-17T12:25:01.866Z,4.10
2018-06-17T12:27:30.422Z,4.80
2018-06-17T12:29:58.834Z,4.67
2018-06-17T12:32:27.242Z,4.40
2018-06-17T12:34:55.736Z,4.90
2018-06-17T12:37:24.172Z,4.10
2018-06-17T12:39:52.304Z,4.63
2018-06-17T12:42:20.688Z,4.60
2018-06-17T12:44:49.146Z,5.43
2018-06-17T12:47:18.570Z,4.60
2018-06-17T12:49:46.997Z,4.77
2018-06-17T12:52:15.453Z,4.00
2018-06-17T12:54:43.805Z,5.03
2018-06-17T12:57:12.329Z,3.53
2018-06-17T12:59:40.691Z,3.77
2018-06-17T13:02:09.179Z,3.63
2018-06-17T13:04:37.688Z,4.90
2018-06-17T13:07:06.402Z,7.50
2018-06-17T13:09:34.930Z,7.03
2018-06-17T13:12:03.522Z,6.80
2018-06-17T13:14:31.978Z,6.60
2018-06-17T13:17:00.125Z,6.53
2018-06-17T13:19:28.698Z,6.43
2018-06-17T13:21:57.142Z,6.20
2018-06-17T13:24:25.569Z,6.80
2018-06-17T13:26:53.994Z,7.20
2018-06-17T13:29:22.484Z,6.73
2018-06-17T13:31:50.940Z,7.20
2018-06-17T13:34:19.282Z,8.20
2018-06-17T13:36:47.814Z,7.37
2018-06-17T13:39:16.242Z,5.97
2018-06-17T13:41:44.698Z,6.67
2018-06-17T13:44:13.268Z,5.73
2018-06-17T13:46:41.694Z,6.30
2018-06-17T13:49:10.228Z,7.00
2018-06-17T13:51:39.330Z,7.23
2018-06-17T13:54:07.886Z,7.37
2018-06-17T13:56:36.300Z,8.53
2018-06-17T13:59:04.794Z,7.30
2018-06-17T14:01:33.225Z,7.50
2018-06-17T14:04:01.791Z,7.03
2018-06-17T14:06:30.346Z,6.50
2018-06-17T14:08:59.363Z,6.10
2018-06-17T14:11:27.593Z,6.43
2018-06-17T14:13:56.506Z,7.03
2018-06-17T14:16:24.965Z,6.17
2018-06-17T14:18:53.644Z,6.50
2018-06-17T14:21:22.124Z,6.03
2018-06-17T14:23:50.483Z,6.40
2018-06-17T14:26:18.966Z,5.87
2018-06-17T14:28:47.221Z,5.90
2018-06-17T14:31:15.747Z,5.80
2018-06-17T14:33:44.221Z,5.50
2018-06-17T14:36:12.750Z,6.23
2018-06-17T14:38:41.316Z,5.13
2018-06-17T14:41:15.155Z,5.73
2018-06-17T14:43:49.005Z,5.87
2018-06-17T14:46:22.983Z,4.20
2018-06-17T14:48:56.712Z,5.53
2018-06-17T14:51:30.672Z,6.97
2018-06-17T14:53:59.194Z,4.47
2018-06-17T14:56:28.146Z,4.33
2018-06-17T14:58:56.592Z,4.80
2018-06-17T15:01:25.007Z,5.00
2018-06-17T15:03:53.487Z,4.97
2018-06-17T15:06:21.915Z,4.43
2018-06-17T15:08:50.480Z,4.50
2018-06-17T15:11:19.063Z,5.50
2018-06-17T15:13:47.620Z,5.03
2018-06-17T15:16:15.838Z,4.73
2018-06-17T15:18:44.249Z,4.90
2018-06-17T15:21:12.710Z,5.40
2018-06-17T15:23:41.158Z,4.50
2018-06-17T15:26:09.601Z,5.70
2018-06-17T15:28:38.092Z,4.37
2018-06-17T15:31:11.896Z,4.73
2018-06-17T15:33:45.740Z,4.30
2018-06-17T15:36:19.340Z,5.27
2018-06-17T15:38:57.655Z,5.20
2018-06-17T15:41:28.966Z,5.27
2018-06-17T15:43:58.436Z,5.70
2018-06-17T15:46:27.717Z,4.67
2018-06-17T15:48:56.625Z,5.63
2018-06-17T15:51:25.196Z,5.17
2018-06-17T15:53:53.660Z,4.70
2018-06-17T15:56:22.110Z,6.70
2018-06-17T15:58:50.614Z,5.30
2018-06-17T16:01:19.354Z,4.93
2018-06-17T16:03:47.867Z,5.00
2018-06-17T16:06:16.322Z,5.73
2018-06-17T16:08:44.621Z,5.10
2018-06-17T16:11:13.151Z,5.10
2018-06-17T16:13:46.961Z,5.83
2018-06-17T16:16:20.648Z,5.53
2018-06-17T16:18:54.519Z,5.57
2018-06-17T16:21:23.061Z,4.90
2018-06-17T16:23:51.507Z,4.93
2018-06-17T16:26:19.920Z,4.87
2018-06-17T16:28:48.444Z,5.70
2018-06-17T16:31:16.614Z,5.70
2018-06-17T16:33:45.011Z,5.10
2018-06-17T16:36:13.545Z,5.03
2018-06-17T16:38:41.987Z,5.47
2018-06-17T16:41:10.160Z,5.40
2018-06-17T16:43:38.644Z,4.83
2018-06-17T16:46:07.083Z,5.53
2018-06-17T16:48:35.580Z,5.20
2018-06-17T16:51:09.338Z,4.93
2018-06-17T16:53:43.768Z,5.07
2018-06-17T16:56:17.424Z,4.70
2018-06-17T16:58:51.354Z,5.70
2018-06-17T17:01:19.506Z,4.90
2018-06-17T17:03:47.968Z,4.97
2018-06-17T17:06:16.445Z,4.50
2018-06-17T17:08:44.909Z,5.20
2018-06-17T17:11:13.348Z,4.57
2018-06-17T17:13:43.340Z,5.47
2018-06-17T17:16:11.864Z,5.30
2018-06-17T17:18:40.297Z,5.27
2018-06-17T17:21:08.848Z,5.30
2018-06-17T17:23:37.157Z,5.40
2018-06-17T17:26:05.831Z,5.13
2018-06-17T17:28:34.857Z,4.67
2018-06-17T17:31:03.967Z,4.60
2018-06-17T17:33:37.816Z,5.53
2018-06-17T17:36:11.513Z,5.43
2018-06-17T17:38:45.444Z,4.90
2018-06-17T17:41:14.570Z,5.60
2018-06-17T17:43:43.143Z,5.90
2018-06-17T17:47:17.622Z,6.00
2018-06-17T17:49:45.800Z,4.73
2018-06-17T17:52:14.109Z,4.43
2018-06-17T17:54:42.775Z,5.30
2018-06-17T17:57:11.554Z,5.33
2018-06-17T17:59:39.964Z,5.03
2018-06-17T18:02:08.562Z,5.40
2018-06-17T18:04:37.106Z,5.07
2018-06-17T18:07:06.042Z,6.30
2018-06-17T18:09:35.519Z,5.33
2018-06-17T18:12:04.457Z,5.50
2018-06-17T18:14:33.113Z,5.97
2018-06-17T18:17:02.422Z,5.40
2018-06-17T18:19:31.190Z,5.90
2018-06-17T18:22:00.053Z,6.27
2018-06-17T18:24:28.866Z,5.83
2018-06-17T18:27:02.719Z,6.53
2018-06-17T18:29:36.606Z,6.87
2018-06-17T18:32:10.766Z,4.37
2018-06-17T18:34:44.563Z,3.50
2018-06-17T18:37:13.463Z,3.90
2018-06-17T18:39:42.431Z,4.10
2018-06-17T18:42:11.603Z,4.40
2018-06-17T18:44:41.131Z,4.50
2018-06-17T18:47:10.303Z,5.80
2018-06-17T18:49:40.103Z,6.57
2018-06-17T18:52:08.893Z,5.17
2018-06-17T18:54:38.811Z,3.87
2018-06-17T18:57:10.350Z,4.10
2018-06-17T18:59:40.758Z,4.40
2018-06-17T19:02:10.248Z,4.43
2018-06-17T19:04:39.230Z,3.80
2018-06-17T19:07:08.887Z,5.87
2018-06-17T19:09:43.014Z,4.37
2018-06-17T19:12:18.307Z,4.93
2018-06-17T19:14:52.406Z,5.50
2018-06-17T19:17:26.636Z,4.50
2018-06-17T19:19:55.275Z,4.77
2018-06-17T19:22:24.224Z,4.67
2018-06-17T19:24:53.242Z,4.67
2018-06-17T19:27:22.555Z,4.37
2018-06-17T19:29:51.791Z,3.23
2018-06-17T19:32:25.512Z,3.83
2018-06-17T19:34:55.391Z,4.77
2018-06-17T19:37:24.529Z,4.03
2018-06-17T19:39:54.183Z,4.60
2018-06-17T19:42:22.980Z,4.27
2018-06-17T19:44:52.100Z,3.93
2018-06-17T19:47:21.146Z,4.43
2018-06-17T19:49:55.181Z,5.17
2018-06-17T19:52:29.066Z,4.17
2018-06-17T19:55:02.933Z,4.90
2018-06-17T19:57:37.992Z,4.70
2018-06-17T20:00:12.045Z,5.40
2018-06-17T20:02:40.992Z,4.00
2018-06-17T20:05:10.077Z,4.37
2018-06-17T20:07:40.212Z,5.00
2018-06-17T20:10:09.417Z,5.20
2018-06-17T20:12:38.267Z,4.47
2018-06-17T20:15:08.038Z,5.10
2018-06-17T20:17:36.754Z,5.00
2018-06-17T20:20:05.424Z,5.80
2018-06-17T20:22:34.182Z,5.10
2018-06-17T20:25:03.947Z,5.00
2018-06-17T20:27:32.559Z,5.63
2018-06-17T20:30:01.576Z,4.50
2018-06-17T20:32:35.433Z,4.70
2018-06-17T20:35:09.434Z,5.47
2018-06-17T20:37:43.460Z,5.17
2018-06-17T20:40:17.341Z,5.23
2018-06-17T20:42:51.190Z,6.13
2018-06-17T20:45:19.912Z,5.50
2018-06-17T20:47:48.570Z,5.50
2018-06-17T20:50:17.541Z,6.00
2018-06-17T20:52:46.090Z,5.80
2018-06-17T20:55:14.649Z,5.53
2018-06-17T20:57:44.310Z,5.60
2018-06-17T21:00:12.914Z,6.60
2018-06-17T21:02:41.454Z,5.40
2018-06-17T21:05:09.976Z,6.80
2018-06-17T21:07:38.856Z,6.40
2018-06-17T21:10:07.518Z,6.00
2018-06-17T21:12:36.116Z,6.20
2018-06-17T21:15:21.091Z,7.33
2018-06-17T21:17:50.855Z,6.70
2018-06-17T21:20:24.705Z,6.63
2018-06-17T21:22:58.475Z,6.67
2018-06-17T21:25:32.004Z,6.17
2018-06-17T21:28:01.577Z,7.63
2018-06-17T21:30:30.010Z,5.93
2018-06-17T21:32:58.481Z,8.30
2018-06-17T21:35:26.931Z,7.87
2018-06-17T21:37:55.301Z,8.80
2018-06-17T21:40:23.741Z,7.30
2018-06-17T21:42:52.183Z,7.70
2018-06-17T21:45:20.588Z,7.23
2018-06-17T21:47:49.367Z,5.63
2018-06-17T21:50:17.796Z,6.40
2018-06-17T21:52:46.251Z,5.60
2018-06-17T21:55:14.656Z,6.10
2018-06-17T21:57:43.085Z,5.80
2018-06-17T22:00:11.524Z,6.43
2018-06-17T22:02:41.994Z,6.73
2018-06-17T22:05:10.617Z,7.07
2018-06-17T22:07:44.537Z,6.83
2018-06-17T22:10:18.355Z,6.70
2018-06-17T22:12:52.098Z,7.40
2018-06-17T22:15:26.008Z,8.10
2018-06-17T22:17:55.471Z,7.93
2018-06-17T22:20:24.016Z,7.60
2018-06-17T22:22:52.451Z,7.23
2018-06-17T22:25:20.980Z,7.97
2018-06-17T22:27:49.421Z,8.83
2018-06-17T22:30:18.087Z,8.90
2018-06-17T22:32:47.142Z,8.97
2018-06-17T22:35:15.580Z,10.30
2018-06-17T22:37:43.985Z,10.10
2018-06-17T22:40:12.574Z,9.83
2018-06-17T22:42:40.972Z,9.10
2018-06-17T22:45:09.461Z,10.30
2018-06-17T22:47:43.292Z,9.73
2018-06-17T22:50:11.794Z,9.63
2018-06-17T22:52:52.297Z,8.80
2018-06-17T22:55:20.756Z,9.57
2018-06-17T22:58:58.161Z,9.60
2018-06-17T23:01:32.004Z,9.87
2018-06-17T23:04:05.820Z,9.60
2018-06-17T23:06:39.534Z,10.60
2018-06-17T23:09:13.860Z,10.10
2018-06-17T23:11:43.252Z,10.10
2018-06-17T23:14:12.549Z,9.67
2018-06-17T23:16:41.049Z,9.97
2018-06-17T23:19:09.479Z,8.77
2018-06-17T23:21:37.859Z,8.87
2018-06-17T23:24:07.270Z,9.30
2018-06-17T23:26:35.685Z,8.60
2018-06-17T23:29:04.076Z,9.60
2018-06-17T23:31:32.542Z,8.90
2018-06-17T23:34:01.070Z,8.40
2018-06-17T23:36:29.505Z,8.33
2018-06-17T23:38:57.889Z,6.80
2018-06-17T23:41:26.335Z,7.60
2018-06-17T23:43:54.751Z,7.20
2018-06-17T23:46:28.477Z,7.60
2018-06-17T23:49:02.284Z,7.37
2018-06-17T23:51:36.083Z,6.77
2018-06-17T23:54:09.906Z,7.50
2018-06-17T23:56:38.344Z,6.83
2018-06-17T23:59:06.756Z,6.83
